Terminal Aerodrome Forecast
Issued by NWS

Home | Current Version | Previous Version | Text Only | Print | Product List | Glossary On
Versions: 1 2 3 4 5 6 7 8 9 10 11 12 13 14 15 16 17 18
000
FTUS41 KBOX 241130
TAFFMH
TAF
KFMH 241130Z 2412/2512 22014G25KT 3SM BR OVC007
     FM241300 23014G24KT 3SM +SHRA VCTS OVC007CB
     FM241600 24012G20KT 3SM BR VCSH BKN008
     FM241700 24012G19KT P6SM BKN030
     FM241900 24011G19KT P6SM SCT120
     FM250100 26007KT P6SM FEW250=

USA.gov is the U.S. government's official web portal to all federal, state and local government web resources and services.